Airfield :
LOGIN :

Register | Disclaimer

   EN    FR    IT 

 










Legend :    VFR   Marginal VFR   IFR   Intensive IFR   Very Intensive IFR
Visi :
Ceiling :
>= 8 km
>= 3000ft
5 to 8 km
1000 to 3000 ft
1500m to 5 km
500 to 1000 ft
800 to 1500m
200 to 500 ft
< 800m
< 200 ft
Symbols :   Thunderstorms  Fog  Heavy snow  Heavy precipitations  Wind > 20 kt
SIGMETs :     Misc.  Thunderstorms  Icing  Turbulence  Mountain Waves  Volcanic Ashes







- Airport Elevation : 255 ft


ENGC - Gullfaks C oil platform

CURRENT METAR :
  • 210920Z 31020KT 9999 FEW025TCU 07/03 Q1018 W06/S5

EXPIRED METARs :
  • 210850Z 30022KT 9999 SCT025 07/03 Q1018 W06/S6
  • 210820Z 30018KT 9999 FEW020TCU 07/03 Q1017 W06/S6
  • 210750Z 31016KT 9999 -SHRA SCT018CB 07/04 Q1016 W06/S5
  • 210720Z 30023KT 9999 -SHRA SCT020TCU 07/04 Q1016 W06/S5
  • 210650Z 29024KT 9999 SCT020 SCT150 08/04 Q1016 W06/S6

TAF TAF ENGC
Valid from the 21 at 09:00 until the 22 at 09:00 UTC


2109/2209 29025KT 9999 -SHRA FEW015TCU BKN030
PROB30
TEMPO 2109/2112 SHRA BKN015CB
BECMG 2115/2118 25012KT
BECMG 2119/2122 18025KT
BECMG 2200/2203 17040KT
BECMG 2203/2206 19050KT BKN010
TEMPO 2206/2209 3000 -DZRA BR BKN004
No reported NOTAMs for that airfield.
3 SIGMETs reported for the Norway FIR (ENOR) :
 
Severe mountain waves
ENOS SIGMET A03 VALID 210800/211200 ENMI
ENOR NORWAY FIR SEV MTW FCST WI N5845 E00730 - N6200 E00730 - N6200 E01030 - N5900 E00900 - N5845 E00730 SFC/FL260 STNR NC=
Severe mountain waves
ENBD SIGMET D02 VALID 210700/211100 ENVN
ENOR NORWAY FIR SEV MTW FCST WI N6500 E01000 - N6725 E01320 - N6650 E01600 - N6500 E01430 - N6500 E01000 SFC/FL400 STNR NC=
Severe turbulence
ENBD SIGMET C04 VALID 210800/211200 ENVV
ENOR NORWAY FIR SEV TURB FCST WI N6400 E00945 - N6500 E01130 - N6500 E01415 - N6400 E01400 - N6330 E01200 - N6400 E00945 SFC/FL070 STNR WKN=



MET'MAP, your aeronautical weather chart ! - Copyright ORBIFLY December 2007 - Disclaimer

ORBIFLY MET'MAP TEAM :

Programming & Development : Alexandra Zaïnal
Concept & Development : Baudouin d'Aumeries
Co-Development & Prog : Marc-Olivier Méhu
Technical & hardware support : Manuel Goepfert

Contact : metmap@orbifly.com




SOURCES & CREDITS :

   NOAA